Terminal Aerodrome Forecast
Issued by NWS

Home | Current Version | Previous Version | Text Only | Print | Product List | Glossary On
Versions: 1 2 3 4 5 6 7 8 9 10 11 12 13
692
FTUS44 KJAN 061129
TAFGTR
TAF
KGTR 061129Z 0612/0712 24010KT P6SM OVC005
     FM061600 30010KT P6SM OVC007
     FM070100 34005KT P6SM OVC003=

USA.gov is the U.S. government's official web portal to all federal, state and local government web resources and services.